Thunder radar more information blitzortung!


Radar de pluja more information rain snow radar


Visita la nostra xarxa de llocs de meteo:

Template documentation
and downloads

And another site



Extreme low temperature From: 13-12-2017 09:00 Until: 09:59 warning for: Extreme low temperature Level: Yellow info button

Pagina Historial Weather Underground text

Diari Resum Setembre 5, 2017 Unitats:  Tant    Imperial   Mètric
« Previous Dia
SegĂźent Dia »
Diari Setmana Mensual Anual Personalitzada
  Maxima: Minima: Media:
Temperatura: 90.1 °F /  32.3 °C 61.9 °F /  16.6 °C 78.6 °F /  25.9 °C
Punt de rosada: 65.7 °F /  18.7 °C 57 °F /  13.9 °C 62.1 °F /  16.7 °C
Humitat: 86 % 38 % 59 %
Wind Speed: 12.7 mph /  20.4 km/h - 4.2 mph /  6.7 km/h
RĂ fegues de vent: 12.7 mph /  20.4 km/h - -
Vent:- - SW
Pression baro: 30.2 in /  1020.9 hPa 30 in /  1016.8 hPa -
Precipitacions: 0 in /  0.0 mm    
Historical Graphs
 
 
Dades de taula per Setembre 5, 2017
Temps Temperatura Punt de rosada Pression baro Vent Wind Speed RĂ fegues de vent Humitat Rainfall Rate (Hourly)
00:00 64.6 °F /  18.1 °C 59 °F /  15.0 °C 30.1 in /  1019.9 hPa Calm   1 mph /  1.6 km/h 82 % 0 in /  0.0 mm
00:02 68.7 °F /  20.4 °C 59.4 °F /  15.2 °C 30.1 in /  1019.9 hPa Calm     72 % 0 in /  0.0 mm
00:10 64.6 °F /  18.1 °C 59 °F /  15.0 °C 30.1 in /  1019.9 hPa NNW 1 mph /  1.6 km/h 2 mph /  3.2 km/h 82 % 0 in /  0.0 mm
00:20 64.4 °F /  18.0 °C 58.8 °F /  14.9 °C 30.1 in /  1019.9 hPa Calm   2 mph /  3.2 km/h 82 % 0 in /  0.0 mm
00:30 64.2 °F /  17.9 °C 58.6 °F /  14.8 °C 30.1 in /  1019.9 hPa Calm     82 % 0 in /  0.0 mm
00:40 63.7 °F /  17.6 °C 58.1 °F /  14.5 °C 30.1 in /  1019.9 hPa Calm   1 mph /  1.6 km/h 82 % 0 in /  0.0 mm
00:50 63.3 °F /  17.4 °C 57.7 °F /  14.3 °C 30.1 in /  1019.9 hPa WSW 1 mph /  1.6 km/h 2 mph /  3.2 km/h 82 % 0 in /  0.0 mm
01:00 63.1 °F /  17.3 °C 57.6 °F /  14.2 °C 30.1 in /  1019.9 hPa WSW 1 mph /  1.6 km/h 2 mph /  3.2 km/h 82 % 0 in /  0.0 mm
01:10 63 °F /  17.2 °C 57.7 °F /  14.3 °C 30.1 in /  1019.9 hPa SW 1 mph /  1.6 km/h 2 mph /  3.2 km/h 83 % 0 in /  0.0 mm
01:20 63 °F /  17.2 °C 57.7 °F /  14.3 °C 30.1 in /  1019.9 hPa SW 1 mph /  1.6 km/h 2 mph /  3.2 km/h 83 % 0 in /  0.0 mm
01:30 63 °F /  17.2 °C 57.7 °F /  14.3 °C 30.1 in /  1019.9 hPa Calm   1 mph /  1.6 km/h 83 % 0 in /  0.0 mm
01:40 63.1 °F /  17.3 °C 58.3 °F /  14.6 °C 30.1 in /  1019.9 hPa Calm     84 % 0 in /  0.0 mm
01:50 63.1 °F /  17.3 °C 58.3 °F /  14.6 °C 30.1 in /  1019.9 hPa Calm     84 % 0 in /  0.0 mm
02:00 62.6 °F /  17.0 °C 57.4 °F /  14.1 °C 30.1 in /  1019.9 hPa Calm   2 mph /  3.2 km/h 83 % 0 in /  0.0 mm
02:10 62.6 °F /  17.0 °C 57.7 °F /  14.3 °C 30.1 in /  1019.9 hPa Calm     84 % 0 in /  0.0 mm
02:20 61.9 °F /  16.6 °C 57 °F /  13.9 °C 30.1 in /  1019.9 hPa WSW 1 mph /  1.6 km/h 2 mph /  3.2 km/h 84 % 0 in /  0.0 mm
02:30 62.1 °F /  16.7 °C 57.2 °F /  14.0 °C 30.1 in /  1018.8 hPa SW 1 mph /  1.6 km/h 2 mph /  3.2 km/h 84 % 0 in /  0.0 mm
02:40 62.1 °F /  16.7 °C 57.6 °F /  14.2 °C 30.1 in /  1018.8 hPa Calm   2 mph /  3.2 km/h 85 % 0 in /  0.0 mm
02:50 62.6 °F /  17.0 °C 57.9 °F /  14.4 °C 30.1 in /  1018.8 hPa Calm   2 mph /  3.2 km/h 85 % 0 in /  0.0 mm
03:00 63.7 °F /  17.6 °C 59.4 °F /  15.2 °C 30.1 in /  1019.9 hPa Calm   1 mph /  1.6 km/h 86 % 0 in /  0.0 mm
03:10 65.1 °F /  18.4 °C 60.4 °F /  15.8 °C 30.1 in /  1019.9 hPa Calm     85 % 0 in /  0.0 mm
03:20 66.2 °F /  19.0 °C 61 °F /  16.1 °C 30.1 in /  1019.9 hPa Calm   1 mph /  1.6 km/h 83 % 0 in /  0.0 mm
03:30 67.8 °F /  19.9 °C 61.9 °F /  16.6 °C 30.1 in /  1019.9 hPa Calm     81 % 0 in /  0.0 mm
03:40 68.4 °F /  20.2 °C 61.5 °F /  16.4 °C 30.1 in /  1019.9 hPa Calm     79 % 0 in /  0.0 mm
03:50 68.4 °F /  20.2 °C 61.2 °F /  16.2 °C 30.1 in /  1019.9 hPa NNW 1 mph /  1.6 km/h 1 mph /  1.6 km/h 78 % 0 in /  0.0 mm
04:00 68.4 °F /  20.2 °C 61 °F /  16.1 °C 30.1 in /  1019.9 hPa Calm     77 % 0 in /  0.0 mm
04:10 68.5 °F /  20.3 °C 61 °F /  16.1 °C 30.2 in /  1020.9 hPa West 1 mph /  1.6 km/h 1 mph /  1.6 km/h 77 % 0 in /  0.0 mm
04:20 70.2 °F /  21.2 °C 62.2 °F /  16.8 °C 30.2 in /  1020.9 hPa Calm   2 mph /  3.2 km/h 76 % 0 in /  0.0 mm
04:30 70 °F /  21.1 °C 61.7 °F /  16.5 °C 30.1 in /  1019.9 hPa SSW 1 mph /  1.6 km/h 2 mph /  3.2 km/h 75 % 0 in /  0.0 mm
04:40 70.5 °F /  21.4 °C 61.9 °F /  16.6 °C 30.1 in /  1019.9 hPa SW 1 mph /  1.6 km/h 2 mph /  3.2 km/h 74 % 0 in /  0.0 mm
04:50 71.8 °F /  22.1 °C 62.2 °F /  16.8 °C 30.1 in /  1019.9 hPa Calm   3 mph /  4.8 km/h 72 % 0 in /  0.0 mm
05:00 72.7 °F /  22.6 °C 62.8 °F /  17.1 °C 30.1 in /  1019.9 hPa NE 2 mph /  3.2 km/h 3 mph /  4.8 km/h 71 % 0 in /  0.0 mm
05:10 73.9 °F /  23.3 °C 63.5 °F /  17.5 °C 30.1 in /  1019.9 hPa NNE 2 mph /  3.2 km/h 3 mph /  4.8 km/h 70 % 0 in /  0.0 mm
05:20 75.4 °F /  24.1 °C 63.7 °F /  17.6 °C 30.1 in /  1019.9 hPa SSE 1 mph /  1.6 km/h 3 mph /  4.8 km/h 67 % 0 in /  0.0 mm
10:23 74.5 °F /  23.6 °C 63.1 °F /  17.3 °C 30.2 in /  1020.9 hPa ESE 3.5 mph /  5.6 km/h 3.5 mph /  5.6 km/h 68 % 0 in /  0.0 mm
10:24 74.5 °F /  23.6 °C 63.1 °F /  17.3 °C 30.2 in /  1020.9 hPa ESE 3.5 mph /  5.6 km/h 3.5 mph /  5.6 km/h 68 % 0 in /  0.0 mm
10:29 75.2 °F /  24.0 °C 63.5 °F /  17.5 °C 30.2 in /  1020.9 hPa NNW 2.4 mph /  3.9 km/h   67 % 0 in /  0.0 mm
10:34 75.6 °F /  24.2 °C 63.3 °F /  17.4 °C 30.2 in /  1020.9 hPa SE 2.3 mph /  3.7 km/h 2.3 mph /  3.7 km/h 66 % 0 in /  0.0 mm
10:39 76.3 °F /  24.6 °C 64.6 °F /  18.1 °C 30.1 in /  1019.9 hPa NE 2.4 mph /  3.9 km/h 2.4 mph /  3.9 km/h 67 % 0 in /  0.0 mm
10:44 76.6 °F /  24.8 °C 64.4 °F /  18.0 °C 30.1 in /  1019.9 hPa ENE 3.6 mph /  5.8 km/h 3.6 mph /  5.8 km/h 66 % 0 in /  0.0 mm
10:49 76.8 °F /  24.9 °C 64.2 °F /  17.9 °C 30.1 in /  1019.9 hPa SSE 1.2 mph /  1.9 km/h 1.2 mph /  1.9 km/h 65 % 0 in /  0.0 mm
10:54 77.7 °F /  25.4 °C 64.6 °F /  18.1 °C 30.1 in /  1019.9 hPa North 2 mph /  3.2 km/h   64 % 0 in /  0.0 mm
10:59 78.8 °F /  26.0 °C 65.7 °F /  18.7 °C 30.1 in /  1019.9 hPa SW 2.3 mph /  3.7 km/h 2.3 mph /  3.7 km/h 64 % 0 in /  0.0 mm
11:04 79.5 °F /  26.4 °C 65.5 °F /  18.6 °C 30.1 in /  1019.9 hPa SE 2.3 mph /  3.7 km/h 2.3 mph /  3.7 km/h 62 % 0 in /  0.0 mm
11:14 80.4 °F /  26.9 °C 65.3 °F /  18.5 °C 30.2 in /  1020.9 hPa SSE 3.5 mph /  5.6 km/h 3.5 mph /  5.6 km/h 60 % 0 in /  0.0 mm
11:19 81.1 °F /  27.3 °C 65.5 °F /  18.6 °C 30.2 in /  1020.9 hPa SSE 3.8 mph /  6.1 km/h 3.8 mph /  6.1 km/h 59 % 0 in /  0.0 mm
11:24 81 °F /  27.2 °C 65.3 °F /  18.5 °C 30.1 in /  1019.9 hPa SSW 4.6 mph /  7.4 km/h 4.6 mph /  7.4 km/h 59 % 0 in /  0.0 mm
11:29 81.7 °F /  27.6 °C 65.5 °F /  18.6 °C 30.1 in /  1019.9 hPa WNW 4 mph /  6.4 km/h 4 mph /  6.4 km/h 58 % 0 in /  0.0 mm
11:34 82 °F /  27.8 °C 65.3 °F /  18.5 °C 30.1 in /  1019.9 hPa SSE 1.2 mph /  1.9 km/h 1.2 mph /  1.9 km/h 57 % 0 in /  0.0 mm
11:39 83.1 °F /  28.4 °C 64.8 °F /  18.2 °C 30.1 in /  1019.9 hPa SSW 5.8 mph /  9.3 km/h 5.8 mph /  9.3 km/h 54 % 0 in /  0.0 mm
11:44 82.6 °F /  28.1 °C 64.8 °F /  18.2 °C 30.1 in /  1019.9 hPa South 5.8 mph /  9.3 km/h 5.8 mph /  9.3 km/h 55 % 0 in /  0.0 mm
11:54 82 °F /  27.8 °C 63.1 °F /  17.3 °C 30.1 in /  1019.9 hPa WSW 5.8 mph /  9.3 km/h 5.8 mph /  9.3 km/h 53 % 0 in /  0.0 mm
11:59 83.3 °F /  28.5 °C 63.9 °F /  17.7 °C 30.1 in /  1019.9 hPa South 3.5 mph /  5.6 km/h 3.5 mph /  5.6 km/h 52 % 0 in /  0.0 mm
12:04 84 °F /  28.9 °C 63.9 °F /  17.7 °C 30.1 in /  1019.9 hPa WSW 4 mph /  6.4 km/h 4 mph /  6.4 km/h 51 % 0 in /  0.0 mm
12:09 83.5 °F /  28.6 °C 63.3 °F /  17.4 °C 30.1 in /  1019.9 hPa WSW 9.2 mph /  14.8 km/h 9.2 mph /  14.8 km/h 51 % 0 in /  0.0 mm
12:14 84 °F /  28.9 °C 63.3 °F /  17.4 °C 30.1 in /  1019.9 hPa SSW 4.3 mph /  6.9 km/h 4.3 mph /  6.9 km/h 50 % 0 in /  0.0 mm
12:19 84.9 °F /  29.4 °C 63.7 °F /  17.6 °C 30.1 in /  1019.9 hPa SSW 5.8 mph /  9.3 km/h 5.8 mph /  9.3 km/h 49 % 0 in /  0.0 mm
12:24 84.7 °F /  29.3 °C 63 °F /  17.2 °C 30.1 in /  1018.8 hPa SW 6.9 mph /  11.1 km/h 6.9 mph /  11.1 km/h 48 % 0 in /  0.0 mm
12:29 84.2 °F /  29.0 °C 62.4 °F /  16.9 °C 30.1 in /  1018.8 hPa SSW 4.6 mph /  7.4 km/h 4.6 mph /  7.4 km/h 48 % 0 in /  0.0 mm
12:34 85.1 °F /  29.5 °C 62.6 °F /  17.0 °C 30.1 in /  1018.8 hPa SW 4.6 mph /  7.4 km/h 4.6 mph /  7.4 km/h 47 % 0 in /  0.0 mm
12:39 85.8 °F /  29.9 °C 62.6 °F /  17.0 °C 30.1 in /  1019.9 hPa SSW 5.8 mph /  9.3 km/h 5.8 mph /  9.3 km/h 46 % 0 in /  0.0 mm
12:44 86.2 °F /  30.1 °C 62.2 °F /  16.8 °C 30.1 in /  1019.9 hPa SSE 3.1 mph /  5.0 km/h 3.1 mph /  5.0 km/h 45 % 0 in /  0.0 mm
12:49 86.2 °F /  30.1 °C 63 °F /  17.2 °C 30.1 in /  1019.9 hPa SSE 2.3 mph /  3.7 km/h 2.3 mph /  3.7 km/h 46 % 0 in /  0.0 mm
12:54 86 °F /  30.0 °C 62.8 °F /  17.1 °C 30.1 in /  1019.9 hPa South 4.6 mph /  7.4 km/h 4.6 mph /  7.4 km/h 46 % 0 in /  0.0 mm
12:59 86.9 °F /  30.5 °C 63 °F /  17.2 °C 30.1 in /  1019.9 hPa WSW 2.6 mph /  4.2 km/h 2.6 mph /  4.2 km/h 45 % 0 in /  0.0 mm
13:04 86.2 °F /  30.1 °C 61.7 °F /  16.5 °C 30.1 in /  1019.9 hPa SW 3.5 mph /  5.6 km/h 3.5 mph /  5.6 km/h 44 % 0 in /  0.0 mm
13:06 86.5 °F /  30.3 °C 62.1 °F /  16.7 °C 30.1 in /  1019.9 hPa West 3.5 mph /  5.6 km/h 3.5 mph /  5.6 km/h 44 % 0 in /  0.0 mm
13:11 87.3 °F /  30.7 °C 62.8 °F /  17.1 °C 30.1 in /  1018.8 hPa SSW 9.2 mph /  14.8 km/h 9.2 mph /  14.8 km/h 44 % 0 in /  0.0 mm
13:16 87.8 °F /  31.0 °C 61.9 °F /  16.6 °C 30.1 in /  1018.8 hPa WSW 3.1 mph /  5.0 km/h 3.1 mph /  5.0 km/h 42 % 0 in /  0.0 mm
13:21 87.6 °F /  30.9 °C 62.4 °F /  16.9 °C 30.1 in /  1018.8 hPa WSW 7.8 mph /  12.6 km/h 7.8 mph /  12.6 km/h 43 % 0 in /  0.0 mm
13:26 86.2 °F /  30.1 °C 59.7 °F /  15.4 °C 30.1 in /  1018.8 hPa SE 5.8 mph /  9.3 km/h 5.8 mph /  9.3 km/h 41 % 0 in /  0.0 mm
13:31 87.8 °F /  31.0 °C 61.2 °F /  16.2 °C 30.1 in /  1018.8 hPa SSW 3.5 mph /  5.6 km/h 3.5 mph /  5.6 km/h 41 % 0 in /  0.0 mm
13:36 88.3 °F /  31.3 °C 61.7 °F /  16.5 °C 30.1 in /  1018.8 hPa SW 4 mph /  6.4 km/h 4 mph /  6.4 km/h 41 % 0 in /  0.0 mm
13:41 88.5 °F /  31.4 °C 61.9 °F /  16.6 °C 30.1 in /  1018.8 hPa SW 5.6 mph /  9.0 km/h 5.6 mph /  9.0 km/h 41 % 0 in /  0.0 mm
13:51 88.3 °F /  31.3 °C 60.3 °F /  15.7 °C 30.1 in /  1018.8 hPa WSW 5.8 mph /  9.3 km/h 5.8 mph /  9.3 km/h 39 % 0 in /  0.0 mm
13:56 88.2 °F /  31.2 °C 60.8 °F /  16.0 °C 30.1 in /  1019.9 hPa West 4.6 mph /  7.4 km/h 4.6 mph /  7.4 km/h 40 % 0 in /  0.0 mm
14:01 88.3 °F /  31.3 °C 59.5 °F /  15.3 °C 30.1 in /  1019.9 hPa SE 4.6 mph /  7.4 km/h 4.6 mph /  7.4 km/h 38 % 0 in /  0.0 mm
14:06 89.1 °F /  31.7 °C 61.5 °F /  16.4 °C 30.1 in /  1019.9 hPa WSW 5.8 mph /  9.3 km/h 5.8 mph /  9.3 km/h 40 % 0 in /  0.0 mm
14:11 88.5 °F /  31.4 °C 61.2 °F /  16.2 °C 30.1 in /  1018.8 hPa SW 3.5 mph /  5.6 km/h 3.5 mph /  5.6 km/h 40 % 0 in /  0.0 mm
14:16 90 °F /  32.2 °C 62.4 °F /  16.9 °C 30.1 in /  1018.8 hPa South 4.6 mph /  7.4 km/h 4.6 mph /  7.4 km/h 40 % 0 in /  0.0 mm
14:21 90 °F /  32.2 °C 62.4 °F /  16.9 °C 30.1 in /  1018.8 hPa WSW 4.6 mph /  7.4 km/h 4.6 mph /  7.4 km/h 40 % 0 in /  0.0 mm
14:26 89.2 °F /  31.8 °C 62.4 °F /  16.9 °C 30.1 in /  1018.8 hPa SW 8.1 mph /  13.0 km/h 8.1 mph /  13.0 km/h 41 % 0 in /  0.0 mm
14:31 89.4 °F /  31.9 °C 62.6 °F /  17.0 °C 30.1 in /  1018.8 hPa South 5.8 mph /  9.3 km/h 5.8 mph /  9.3 km/h 41 % 0 in /  0.0 mm
14:36 90 °F /  32.2 °C 63.1 °F /  17.3 °C 30.1 in /  1018.8 hPa WSW 4.5 mph /  7.2 km/h 4.5 mph /  7.2 km/h 41 % 0 in /  0.0 mm
14:41 89.2 °F /  31.8 °C 62.4 °F /  16.9 °C 30.1 in /  1018.8 hPa SSW 6 mph /  9.7 km/h 6.9 mph /  11.1 km/h 41 % 0 in /  0.0 mm
14:46 88.3 °F /  31.3 °C 61 °F /  16.1 °C 30.1 in /  1018.8 hPa SSE 6.9 mph /  11.1 km/h 6.9 mph /  11.1 km/h 40 % 0 in /  0.0 mm
14:51 89.1 °F /  31.7 °C 62.2 °F /  16.8 °C 30.1 in /  1018.8 hPa SSW 6.9 mph /  11.1 km/h 6.9 mph /  11.1 km/h 41 % 0 in /  0.0 mm
14:56 89.4 °F /  31.9 °C 62.6 °F /  17.0 °C 30.1 in /  1018.8 hPa SSE 8.1 mph /  13.0 km/h 8.1 mph /  13.0 km/h 41 % 0 in /  0.0 mm
15:01 89.4 °F /  31.9 °C 62.6 °F /  17.0 °C 30.1 in /  1018.8 hPa SW 5.8 mph /  9.3 km/h 5.8 mph /  9.3 km/h 41 % 0 in /  0.0 mm
15:06 89.8 °F /  32.1 °C 61.5 °F /  16.4 °C 30.1 in /  1018.8 hPa SW 3.6 mph /  5.8 km/h 3.6 mph /  5.8 km/h 39 % 0 in /  0.0 mm
15:11 89.8 °F /  32.1 °C 62.2 °F /  16.8 °C 30.1 in /  1018.8 hPa SSE 4.6 mph /  7.4 km/h 4.6 mph /  7.4 km/h 40 % 0 in /  0.0 mm
15:16 90 °F /  32.2 °C 62.4 °F /  16.9 °C 30.1 in /  1018.8 hPa South 6.9 mph /  11.1 km/h 6.9 mph /  11.1 km/h 40 % 0 in /  0.0 mm
15:21 88.9 °F /  31.6 °C 60.6 °F /  15.9 °C 30.1 in /  1018.8 hPa SW 4.6 mph /  7.4 km/h 4.6 mph /  7.4 km/h 39 % 0 in /  0.0 mm
15:26 90 °F /  32.2 °C 62.4 °F /  16.9 °C 30.1 in /  1017.8 hPa WNW 3.5 mph /  5.6 km/h 3.5 mph /  5.6 km/h 40 % 0 in /  0.0 mm
15:31 90.1 °F /  32.3 °C 62.6 °F /  17.0 °C 30.1 in /  1017.8 hPa SSW 3.5 mph /  5.6 km/h 3.8 mph /  6.1 km/h 40 % 0 in /  0.0 mm
15:36 89.8 °F /  32.1 °C 61.5 °F /  16.4 °C 30.1 in /  1017.8 hPa South 10.4 mph /  16.7 km/h 10.4 mph /  16.7 km/h 39 % 0 in /  0.0 mm
15:41 89.2 °F /  31.8 °C 61 °F /  16.1 °C 30.1 in /  1017.8 hPa SW 2.9 mph /  4.7 km/h 2.9 mph /  4.7 km/h 39 % 0 in /  0.0 mm
15:46 89.1 °F /  31.7 °C 61 °F /  16.1 °C 30.1 in /  1017.8 hPa ESE 5.8 mph /  9.3 km/h 5.8 mph /  9.3 km/h 39 % 0 in /  0.0 mm
15:51 89.8 °F /  32.1 °C 61.5 °F /  16.4 °C 30.1 in /  1017.8 hPa SSE 8.1 mph /  13.0 km/h 8.1 mph /  13.0 km/h 39 % 0 in /  0.0 mm
15:56 89.4 °F /  31.9 °C 61.2 °F /  16.2 °C 30.1 in /  1017.8 hPa SSW 6.9 mph /  11.1 km/h 6.9 mph /  11.1 km/h 39 % 0 in /  0.0 mm
16:01 88.2 °F /  31.2 °C 59.4 °F /  15.2 °C 30.1 in /  1017.8 hPa SW 6.9 mph /  11.1 km/h 6.9 mph /  11.1 km/h 38 % 0 in /  0.0 mm
16:06 88.5 °F /  31.4 °C 60.4 °F /  15.8 °C 30.1 in /  1017.8 hPa WSW 8.7 mph /  14.0 km/h 8.7 mph /  14.0 km/h 39 % 0 in /  0.0 mm
16:11 88.2 °F /  31.2 °C 60.1 °F /  15.6 °C 30.1 in /  1017.8 hPa SW 9.2 mph /  14.8 km/h 9.2 mph /  14.8 km/h 39 % 0 in /  0.0 mm
16:16 88.2 °F /  31.2 °C 60.1 °F /  15.6 °C 30.1 in /  1017.8 hPa SW 5.8 mph /  9.3 km/h 5.8 mph /  9.3 km/h 39 % 0 in /  0.0 mm
16:21 88 °F /  31.1 °C 59.9 °F /  15.5 °C 30.1 in /  1017.8 hPa SSW 8.1 mph /  13.0 km/h 8.1 mph /  13.0 km/h 39 % 0 in /  0.0 mm
16:26 88.5 °F /  31.4 °C 60.4 °F /  15.8 °C 30 in /  1016.8 hPa South 4.6 mph /  7.4 km/h 4.6 mph /  7.4 km/h 39 % 0 in /  0.0 mm
16:31 88.9 °F /  31.6 °C 60.6 °F /  15.9 °C 30 in /  1016.8 hPa SW 8.1 mph /  13.0 km/h 8.1 mph /  13.0 km/h 39 % 0 in /  0.0 mm
16:36 88.3 °F /  31.3 °C 61 °F /  16.1 °C 30 in /  1016.8 hPa South 5.8 mph /  9.3 km/h 5.8 mph /  9.3 km/h 40 % 0 in /  0.0 mm
16:41 88 °F /  31.1 °C 59.9 °F /  15.5 °C 30.1 in /  1017.8 hPa WSW 11.5 mph /  18.5 km/h 11.5 mph /  18.5 km/h 39 % 0 in /  0.0 mm
16:46 87.8 °F /  31.0 °C 60.4 °F /  15.8 °C 30.1 in /  1017.8 hPa WSW 5.8 mph /  9.3 km/h 5.8 mph /  9.3 km/h 40 % 0 in /  0.0 mm
16:51 87.6 °F /  30.9 °C 61 °F /  16.1 °C 30.1 in /  1017.8 hPa SW 8.1 mph /  13.0 km/h 8.1 mph /  13.0 km/h 41 % 0 in /  0.0 mm
16:56 87.6 °F /  30.9 °C 61 °F /  16.1 °C 30.1 in /  1017.8 hPa WSW 5.9 mph /  9.5 km/h 5.9 mph /  9.5 km/h 41 % 0 in /  0.0 mm
17:01 87.6 °F /  30.9 °C 61.7 °F /  16.5 °C 30.1 in /  1017.8 hPa SW 6.9 mph /  11.1 km/h 6.9 mph /  11.1 km/h 42 % 0 in /  0.0 mm
17:06 87.4 °F /  30.8 °C 61.5 °F /  16.4 °C 30.1 in /  1017.8 hPa South 10.4 mph /  16.7 km/h 10.4 mph /  16.7 km/h 42 % 0 in /  0.0 mm
17:11 86.9 °F /  30.5 °C 61 °F /  16.1 °C 30.1 in /  1017.8 hPa South 12.7 mph /  20.4 km/h 12.7 mph /  20.4 km/h 42 % 0 in /  0.0 mm
17:16 86.4 °F /  30.2 °C 60.6 °F /  15.9 °C 30.1 in /  1017.8 hPa SW 8.1 mph /  13.0 km/h 8.1 mph /  13.0 km/h 42 % 0 in /  0.0 mm
17:21 87.1 °F /  30.6 °C 61.2 °F /  16.2 °C 30.1 in /  1017.8 hPa SE 5.8 mph /  9.3 km/h 5.8 mph /  9.3 km/h 42 % 0 in /  0.0 mm
17:26 86.4 °F /  30.2 °C 61.2 °F /  16.2 °C 30.1 in /  1017.8 hPa SW 6.9 mph /  11.1 km/h 6.9 mph /  11.1 km/h 43 % 0 in /  0.0 mm
17:31 86.9 °F /  30.5 °C 61.7 °F /  16.5 °C 30.1 in /  1017.8 hPa SSW 7.4 mph /  11.9 km/h 7.4 mph /  11.9 km/h 43 % 0 in /  0.0 mm
17:36 85.8 °F /  29.9 °C 61.3 °F /  16.3 °C 30.1 in /  1017.8 hPa WSW 9.2 mph /  14.8 km/h 9.2 mph /  14.8 km/h 44 % 0 in /  0.0 mm
17:41 85.8 °F /  29.9 °C 61.3 °F /  16.3 °C 30.1 in /  1017.8 hPa SW 5.8 mph /  9.3 km/h 5.8 mph /  9.3 km/h 44 % 0 in /  0.0 mm
17:46 85.8 °F /  29.9 °C 61.3 °F /  16.3 °C 30.1 in /  1017.8 hPa SW 9.2 mph /  14.8 km/h 9.2 mph /  14.8 km/h 44 % 0 in /  0.0 mm
17:51 85.5 °F /  29.7 °C 61.2 °F /  16.2 °C 30.1 in /  1017.8 hPa SSW 8.1 mph /  13.0 km/h 8.1 mph /  13.0 km/h 44 % 0 in /  0.0 mm
17:56 85.8 °F /  29.9 °C 61.3 °F /  16.3 °C 30.1 in /  1017.8 hPa SSW 9.2 mph /  14.8 km/h 9.2 mph /  14.8 km/h 44 % 0 in /  0.0 mm
18:01 85.8 °F /  29.9 °C 62.1 °F /  16.7 °C 30.1 in /  1017.8 hPa WSW 6 mph /  9.7 km/h 6 mph /  9.7 km/h 45 % 0 in /  0.0 mm
18:06 85.5 °F /  29.7 °C 61.7 °F /  16.5 °C 30.1 in /  1017.8 hPa West 6.2 mph /  10.0 km/h 6.2 mph /  10.0 km/h 45 % 0 in /  0.0 mm
18:11 84.9 °F /  29.4 °C 61.9 °F /  16.6 °C 30.1 in /  1017.8 hPa SSW 6.9 mph /  11.1 km/h 6.9 mph /  11.1 km/h 46 % 0 in /  0.0 mm
18:16 84.7 °F /  29.3 °C 61.7 °F /  16.5 °C 30.1 in /  1017.8 hPa South 8.1 mph /  13.0 km/h 8.1 mph /  13.0 km/h 46 % 0 in /  0.0 mm
18:21 84.2 °F /  29.0 °C 61.9 °F /  16.6 °C 30.1 in /  1017.8 hPa South 5.8 mph /  9.3 km/h 5.8 mph /  9.3 km/h 47 % 0 in /  0.0 mm
18:26 84 °F /  28.9 °C 62.2 °F /  16.8 °C 30.1 in /  1017.8 hPa South 8.1 mph /  13.0 km/h 8.1 mph /  13.0 km/h 48 % 0 in /  0.0 mm
18:31 84.4 °F /  29.1 °C 61.9 °F /  16.6 °C 30.1 in /  1017.8 hPa SW 8.1 mph /  13.0 km/h 8.1 mph /  13.0 km/h 47 % 0 in /  0.0 mm
18:36 83.7 °F /  28.7 °C 62.4 °F /  16.9 °C 30.1 in /  1017.8 hPa South 12.7 mph /  20.4 km/h 12.7 mph /  20.4 km/h 49 % 0 in /  0.0 mm
18:41 83.7 °F /  28.7 °C 62.4 °F /  16.9 °C 30.1 in /  1017.8 hPa SW 4.6 mph /  7.4 km/h 5.4 mph /  8.7 km/h 49 % 0 in /  0.0 mm
18:46 83.3 °F /  28.5 °C 62.1 °F /  16.7 °C 30.1 in /  1017.8 hPa SW 9.7 mph /  15.6 km/h 9.7 mph /  15.6 km/h 49 % 0 in /  0.0 mm
18:51 82.9 °F /  28.3 °C 61.9 °F /  16.6 °C 30.1 in /  1017.8 hPa SW 6.9 mph /  11.1 km/h 6.9 mph /  11.1 km/h 49 % 0 in /  0.0 mm
18:56 82.6 °F /  28.1 °C 61.5 °F /  16.4 °C 30.1 in /  1017.8 hPa SW 8.1 mph /  13.0 km/h 8.1 mph /  13.0 km/h 49 % 0 in /  0.0 mm
19:01 82.2 °F /  27.9 °C 61.7 °F /  16.5 °C 30.1 in /  1017.8 hPa South 5.8 mph /  9.3 km/h 5.8 mph /  9.3 km/h 50 % 0 in /  0.0 mm
19:06 82.2 °F /  27.9 °C 61.7 °F /  16.5 °C 30.1 in /  1017.8 hPa SW 10.2 mph /  16.4 km/h 10.2 mph /  16.4 km/h 50 % 0 in /  0.0 mm
19:11 81.7 °F /  27.6 °C 61.9 °F /  16.6 °C 30.1 in /  1017.8 hPa SW 5.8 mph /  9.3 km/h 5.8 mph /  9.3 km/h 51 % 0 in /  0.0 mm
19:16 81.1 °F /  27.3 °C 61.3 °F /  16.3 °C 30.1 in /  1017.8 hPa WSW 10.4 mph /  16.7 km/h 10.4 mph /  16.7 km/h 51 % 0 in /  0.0 mm
19:21 80.8 °F /  27.1 °C 61.5 °F /  16.4 °C 30.1 in /  1017.8 hPa SSW 6.9 mph /  11.1 km/h 6.9 mph /  11.1 km/h 52 % 0 in /  0.0 mm
19:26 80.4 °F /  26.9 °C 61.7 °F /  16.5 °C 30.1 in /  1017.8 hPa WNW 5.8 mph /  9.3 km/h 5.8 mph /  9.3 km/h 53 % 0 in /  0.0 mm
19:31 80.1 °F /  26.7 °C 61.3 °F /  16.3 °C 30.1 in /  1017.8 hPa SSW 8.7 mph /  14.0 km/h 8.7 mph /  14.0 km/h 53 % 0 in /  0.0 mm
19:36 79.7 °F /  26.5 °C 61.5 °F /  16.4 °C 30.1 in /  1017.8 hPa SW 8.1 mph /  13.0 km/h 8.1 mph /  13.0 km/h 54 % 0 in /  0.0 mm
19:41 79.5 °F /  26.4 °C 61.3 °F /  16.3 °C 30.1 in /  1017.8 hPa SW 4.6 mph /  7.4 km/h 4.6 mph /  7.4 km/h 54 % 0 in /  0.0 mm
19:46 79.2 °F /  26.2 °C 61.5 °F /  16.4 °C 30.1 in /  1017.8 hPa West 10.4 mph /  16.7 km/h 10.4 mph /  16.7 km/h 55 % 0 in /  0.0 mm
19:51 79 °F /  26.1 °C 61.3 °F /  16.3 °C 30.1 in /  1017.8 hPa SW 8.1 mph /  13.0 km/h 8.1 mph /  13.0 km/h 55 % 0 in /  0.0 mm
19:56 78.8 °F /  26.0 °C 61.9 °F /  16.6 °C 30.1 in /  1017.8 hPa SW 6.9 mph /  11.1 km/h 6.9 mph /  11.1 km/h 56 % 0 in /  0.0 mm
20:01 78.3 °F /  25.7 °C 61.3 °F /  16.3 °C 30.1 in /  1017.8 hPa WSW 11.5 mph /  18.5 km/h 11.5 mph /  18.5 km/h 56 % 0 in /  0.0 mm
20:06 78.1 °F /  25.6 °C 61.5 °F /  16.4 °C 30.1 in /  1017.8 hPa SSW 5.8 mph /  9.3 km/h 5.8 mph /  9.3 km/h 57 % 0 in /  0.0 mm
20:11 77.9 °F /  25.5 °C 61.3 °F /  16.3 °C 30.1 in /  1017.8 hPa SSW 5.8 mph /  9.3 km/h 5.8 mph /  9.3 km/h 57 % 0 in /  0.0 mm
20:16 77.5 °F /  25.3 °C 61.2 °F /  16.2 °C 30.1 in /  1017.8 hPa WSW 5.8 mph /  9.3 km/h 5.8 mph /  9.3 km/h 57 % 0 in /  0.0 mm
20:21 77.4 °F /  25.2 °C 61 °F /  16.1 °C 30.1 in /  1017.8 hPa WSW 5.6 mph /  9.0 km/h 5.6 mph /  9.0 km/h 57 % 0 in /  0.0 mm
20:26 77.2 °F /  25.1 °C 61.3 °F /  16.3 °C 30.1 in /  1017.8 hPa West 5.8 mph /  9.3 km/h 5.8 mph /  9.3 km/h 58 % 0 in /  0.0 mm
20:31 76.8 °F /  24.9 °C 61.3 °F /  16.3 °C 30.1 in /  1017.8 hPa South 8.1 mph /  13.0 km/h 8.1 mph /  13.0 km/h 59 % 0 in /  0.0 mm
20:36 76.6 °F /  24.8 °C 61.7 °F /  16.5 °C 30.1 in /  1017.8 hPa WSW 4.6 mph /  7.4 km/h 4.6 mph /  7.4 km/h 60 % 0 in /  0.0 mm
20:41 76.5 °F /  24.7 °C 61.5 °F /  16.4 °C 30.1 in /  1017.8 hPa WSW 6.9 mph /  11.1 km/h 6.9 mph /  11.1 km/h 60 % 0 in /  0.0 mm
20:46 76.3 °F /  24.6 °C 61.3 °F /  16.3 °C 30.1 in /  1017.8 hPa West 5.8 mph /  9.3 km/h 5.8 mph /  9.3 km/h 60 % 0 in /  0.0 mm
20:51 76.1 °F /  24.5 °C 61.2 °F /  16.2 °C 30.1 in /  1017.8 hPa SW 3.5 mph /  5.6 km/h 3.5 mph /  5.6 km/h 60 % 0 in /  0.0 mm
20:56 75.9 °F /  24.4 °C 61.5 °F /  16.4 °C 30.1 in /  1018.8 hPa West 3.5 mph /  5.6 km/h 3.5 mph /  5.6 km/h 61 % 0 in /  0.0 mm
21:01 75.7 °F /  24.3 °C 61.9 °F /  16.6 °C 30.1 in /  1018.8 hPa WSW 2.9 mph /  4.7 km/h 2.9 mph /  4.7 km/h 62 % 0 in /  0.0 mm
21:06 75.6 °F /  24.2 °C 61.2 °F /  16.2 °C 30.1 in /  1018.8 hPa WSW 2.3 mph /  3.7 km/h 2.9 mph /  4.7 km/h 61 % 0 in /  0.0 mm
21:11 75.4 °F /  24.1 °C 61.5 °F /  16.4 °C 30.1 in /  1018.8 hPa SSE 2.3 mph /  3.7 km/h 2.3 mph /  3.7 km/h 62 % 0 in /  0.0 mm
21:16 75.2 °F /  24.0 °C 61.3 °F /  16.3 °C 30.1 in /  1018.8 hPa SW 3.8 mph /  6.1 km/h 3.8 mph /  6.1 km/h 62 % 0 in /  0.0 mm
21:21 75.2 °F /  24.0 °C 61.3 °F /  16.3 °C 30.1 in /  1018.8 hPa SSW 5.8 mph /  9.3 km/h 5.8 mph /  9.3 km/h 62 % 0 in /  0.0 mm
21:26 75 °F /  23.9 °C 62.1 °F /  16.7 °C 30.1 in /  1019.9 hPa SW 2.3 mph /  3.7 km/h 2.3 mph /  3.7 km/h 64 % 0 in /  0.0 mm
21:30 71.2 °F /  21.8 °C 65.1 °F /  18.4 °C 30.1 in /  1019.9 hPa SW 2 mph /  3.2 km/h 2 mph /  3.2 km/h 81 % 0 in /  0.0 mm
21:31 74.8 °F /  23.8 °C 61.9 °F /  16.6 °C 30.1 in /  1019.9 hPa SW 2.6 mph /  4.2 km/h 2.6 mph /  4.2 km/h 64 % 0 in /  0.0 mm
21:36 74.7 °F /  23.7 °C 62.1 °F /  16.7 °C 30.1 in /  1019.9 hPa South 2.3 mph /  3.7 km/h 2.3 mph /  3.7 km/h 65 % 0 in /  0.0 mm
21:40 71.1 °F /  21.7 °C 65.3 °F /  18.5 °C 30.1 in /  1019.9 hPa WSW 1 mph /  1.6 km/h 3 mph /  4.8 km/h 82 % 0 in /  0.0 mm
21:41 74.7 °F /  23.7 °C 62.1 °F /  16.7 °C 30.1 in /  1019.9 hPa SSW 3.5 mph /  5.6 km/h 3.5 mph /  5.6 km/h 65 % 0 in /  0.0 mm
21:42 74.5 °F /  23.6 °C 62.4 °F /  16.9 °C 30.1 in /  1019.9 hPa WSW 3.5 mph /  5.6 km/h 3.5 mph /  5.6 km/h 66 % 0 in /  0.0 mm
21:47 74.5 °F /  23.6 °C 62.8 °F /  17.1 °C 30.1 in /  1019.9 hPa SW 2.9 mph /  4.7 km/h 2.9 mph /  4.7 km/h 67 % 0 in /  0.0 mm
21:50 70.7 °F /  21.5 °C 64.9 °F /  18.3 °C 30.1 in /  1019.9 hPa WSW 2 mph /  3.2 km/h 3 mph /  4.8 km/h 82 % 0 in /  0.0 mm
21:52 74.3 °F /  23.5 °C 62.6 °F /  17.0 °C 30.1 in /  1019.9 hPa SSW 4.6 mph /  7.4 km/h 4.6 mph /  7.4 km/h 67 % 0 in /  0.0 mm
21:57 74.1 °F /  23.4 °C 63 °F /  17.2 °C 30.1 in /  1019.9 hPa SW 2.4 mph /  3.9 km/h   68 % 0 in /  0.0 mm
22:00 70.7 °F /  21.5 °C 64.9 °F /  18.3 °C 30.1 in /  1019.9 hPa WSW 2 mph /  3.2 km/h 3 mph /  4.8 km/h 82 % 0 in /  0.0 mm
22:02 73.9 °F /  23.3 °C 62.8 °F /  17.1 °C 30.1 in /  1019.9 hPa WSW 2.3 mph /  3.7 km/h 2.3 mph /  3.7 km/h 68 % 0 in /  0.0 mm
22:07 73.9 °F /  23.3 °C 62.8 °F /  17.1 °C 30.1 in /  1019.9 hPa SW 2.3 mph /  3.7 km/h 2.3 mph /  3.7 km/h 68 % 0 in /  0.0 mm
22:12 73.9 °F /  23.3 °C 63.1 °F /  17.3 °C 30.1 in /  1019.9 hPa SW 3.5 mph /  5.6 km/h 3.5 mph /  5.6 km/h 69 % 0 in /  0.0 mm
22:17 73.8 °F /  23.2 °C 63 °F /  17.2 °C 30.1 in /  1019.9 hPa SW 2.3 mph /  3.7 km/h 2.3 mph /  3.7 km/h 69 % 0 in /  0.0 mm
22:20 70.5 °F /  21.4 °C 65.5 °F /  18.6 °C 30.1 in /  1019.9 hPa Calm   2 mph /  3.2 km/h 84 % 0 in /  0.0 mm
22:22 73.6 °F /  23.1 °C 63.1 °F /  17.3 °C 30.1 in /  1019.9 hPa SW 2.3 mph /  3.7 km/h 2.4 mph /  3.9 km/h 70 % 0 in /  0.0 mm
22:27 73.6 °F /  23.1 °C 63.1 °F /  17.3 °C 30.1 in /  1019.9 hPa SSW 3.5 mph /  5.6 km/h 3.5 mph /  5.6 km/h 70 % 0 in /  0.0 mm
22:30 70.5 °F /  21.4 °C 65.5 °F /  18.6 °C 30.1 in /  1018.8 hPa West 1 mph /  1.6 km/h 2 mph /  3.2 km/h 84 % 0 in /  0.0 mm
22:32 73.6 °F /  23.1 °C 63.7 °F /  17.6 °C 30.1 in /  1019.9 hPa WSW 2.3 mph /  3.7 km/h 2.3 mph /  3.7 km/h 71 % 0 in /  0.0 mm
22:37 73.6 °F /  23.1 °C 63.7 °F /  17.6 °C 30.1 in /  1019.9 hPa SW 1.2 mph /  1.9 km/h 1.2 mph /  1.9 km/h 71 % 0 in /  0.0 mm
22:40 70.5 °F /  21.4 °C 65.5 °F /  18.6 °C 30.1 in /  1019.9 hPa Calm   2 mph /  3.2 km/h 84 % 0 in /  0.0 mm
22:42 73.4 °F /  23.0 °C 63.3 °F /  17.4 °C 30.1 in /  1019.9 hPa West 2.3 mph /  3.7 km/h 2.3 mph /  3.7 km/h 71 % 0 in /  0.0 mm
22:47 73.4 °F /  23.0 °C 63.9 °F /  17.7 °C 30.1 in /  1019.9 hPa WNW 1.4 mph /  2.3 km/h 1.4 mph /  2.3 km/h 72 % 0 in /  0.0 mm
22:50 70.3 °F /  21.3 °C 65.3 °F /  18.5 °C 30.1 in /  1019.9 hPa Calm   1 mph /  1.6 km/h 84 % 0 in /  0.0 mm
22:52 73.4 °F /  23.0 °C 63.9 °F /  17.7 °C 30.1 in /  1019.9 hPa WSW 2 mph /  3.2 km/h 2 mph /  3.2 km/h 72 % 0 in /  0.0 mm
22:57 73.4 °F /  23.0 °C 63.9 °F /  17.7 °C 30.1 in /  1018.8 hPa WSW 2.3 mph /  3.7 km/h 2.3 mph /  3.7 km/h 72 % 0 in /  0.0 mm
23:00 70.2 °F /  21.2 °C 65.1 °F /  18.4 °C 30.1 in /  1019.9 hPa Calm     84 % 0 in /  0.0 mm
23:02 73.2 °F /  22.9 °C 64 °F /  17.8 °C 30.1 in /  1018.8 hPa WSW 2.3 mph /  3.7 km/h 2.3 mph /  3.7 km/h 73 % 0 in /  0.0 mm
23:07 73.2 °F /  22.9 °C 63.7 °F /  17.6 °C 30.1 in /  1018.8 hPa WSW 2.3 mph /  3.7 km/h 2.4 mph /  3.9 km/h 72 % 0 in /  0.0 mm
23:10 69.8 °F /  21.0 °C 65.1 °F /  18.4 °C 30.1 in /  1019.9 hPa Calm   2 mph /  3.2 km/h 85 % 0 in /  0.0 mm
23:12 73.2 °F /  22.9 °C 64 °F /  17.8 °C 30.1 in /  1019.9 hPa WSW 2.3 mph /  3.7 km/h 2.3 mph /  3.7 km/h 73 % 0 in /  0.0 mm
23:17 73 °F /  22.8 °C 63.9 °F /  17.7 °C 30.1 in /  1019.9 hPa WSW 2.3 mph /  3.7 km/h 2.3 mph /  3.7 km/h 73 % 0 in /  0.0 mm
23:20 69.6 °F /  20.9 °C 64.9 °F /  18.3 °C 30.1 in /  1019.9 hPa ESE 1 mph /  1.6 km/h 1 mph /  1.6 km/h 85 % 0 in /  0.0 mm
23:22 73 °F /  22.8 °C 63.9 °F /  17.7 °C 30.1 in /  1019.9 hPa WSW 2.3 mph /  3.7 km/h 2.3 mph /  3.7 km/h 73 % 0 in /  0.0 mm
23:27 73 °F /  22.8 °C 64.2 °F /  17.9 °C 30.1 in /  1019.9 hPa WSW 2.3 mph /  3.7 km/h 2.3 mph /  3.7 km/h 74 % 0 in /  0.0 mm
23:30 69.3 °F /  20.7 °C 64.6 °F /  18.1 °C 30.1 in /  1019.9 hPa Calm   2 mph /  3.2 km/h 85 % 0 in /  0.0 mm
23:32 72.9 °F /  22.7 °C 64 °F /  17.8 °C 30.1 in /  1019.9 hPa WSW 2.3 mph /  3.7 km/h 2.3 mph /  3.7 km/h 74 % 0 in /  0.0 mm
23:37 72.9 °F /  22.7 °C 64 °F /  17.8 °C 30.1 in /  1019.9 hPa WSW 2.3 mph /  3.7 km/h 2.3 mph /  3.7 km/h 74 % 0 in /  0.0 mm
23:40 69.4 °F /  20.8 °C 65.1 °F /  18.4 °C 30.1 in /  1019.9 hPa Calm     86 % 0 in /  0.0 mm
23:42 72.9 °F /  22.7 °C 64 °F /  17.8 °C 30.1 in /  1019.9 hPa West 2.3 mph /  3.7 km/h 2.3 mph /  3.7 km/h 74 % 0 in /  0.0 mm
23:47 72.9 °F /  22.7 °C 64.6 °F /  18.1 °C 30.1 in /  1019.9 hPa West 1.2 mph /  1.9 km/h 1.2 mph /  1.9 km/h 75 % 0 in /  0.0 mm
23:50 69.4 °F /  20.8 °C 65.1 °F /  18.4 °C 30.1 in /  1019.9 hPa Calm     86 % 0 in /  0.0 mm
23:52 72.9 °F /  22.7 °C 64.6 °F /  18.1 °C 30.1 in /  1019.9 hPa West 2.3 mph /  3.7 km/h 2.3 mph /  3.7 km/h 75 % 0 in /  0.0 mm
23:57 72.9 °F /  22.7 °C 64.6 °F /  18.1 °C 30.1 in /  1019.9 hPa SW 2.3 mph /  3.7 km/h 2.3 mph /  3.7 km/h 75 % 0 in /  0.0 mm
Meteo Sesrovires
Elogis d' Weather Underground - 3.5 mb

Guio original per  Jim McMurry - jmcmurry@mwt.net Adaptat per a la plantilla per  Wim van der Kuil - Leuven-Template.eu

Trobareu la nostra informacio del temps tambe a:

Weather Underground

AWEKAS